San Francisco, CA

2:24 AM PDT on September 21, 2014 (GMT -0700)
San Francisco International | Change Station
CLOSE
Current Station
Airport
Location: San Francisco,
Elevation: 16 ft
Nearby Weather Stations

Elev 16 ft 37.62 °N, 122.37 °W | Updated 9 minutes ago

Overcast
Overcast
66 °F
Feels Like 66 °F
N
12
Wind Variable Wind from WSW

Today
High -- | Low -- °F
--% Chance of Precip.
Yesterday
High -- | Low -- °F
Precip. -- in
6:56 AM 7:07 PM
Waning Crescent, 7% visible
Pressure 29.95 in
Visibility 10.0 miles
Clouds Overcast 1600 ft
Dew Point 59 °F
Humidity 78%
Rainfall 0.00 in
Snow Depth Not available.
UV 0 out of 12
Pollen 4.00 out of 12
Ozone Good
PM2.5 Good
Flu Activity Not available.
SPECI KSFO 210915Z 24010KT 10SM OVC016 19/15 A2995 RMK AO2 $

More Conditions Fewer Conditions

Pressure 29.95 in
Visibility 10.0 miles
Clouds Overcast 1600 ft
Dew Point 59 °F
Humidity 78%
Rainfall 0.00 in
Snow Depth Not available.
UV 0 out of 12
Pollen 4.00 out of 12
Ozone Good
PM2.5 Good
Flu Activity Not available.
SPECI KSFO 210915Z 24010KT 10SM OVC016 19/15 A2995 RMK AO2 $

More Conditions Fewer Conditions

10-Day Weather Forecast

Almanac

Astronomy

Sep. 21, 2014 Rise Set
Actual Time 6:56 AM PDT 7:07 PM PDT
Civil Twilight 6:30 AM PDT 7:33 PM PDT
Nautical Twilight 5:59 AM PDT 8:04 PM PDT
Astronomical Twilight 5:28 AM PDT 8:35 PM PDT
Moon 4:37 AM PDT 5:45 PM PDT
Length of Visible Light 13h 03m
Length of Day
12h 11m
Tomorrow will be 2m 25s shorter.
Waning Crescent, 7% of the Moon is Illuminated
Today
Waning Crescent
Sep 24
New
Oct 1
First Quarter
Oct 8
Full
Oct 15
Last Quarter

Today's Extremes

State Highs State Lows

Community

WunderPhotos

Upload Photos

1,755,106 photos uploaded!

Nearby

Air Quality

  Air Quality AQ Index Pollutant
Yesterday Good
PM2.5
Yesterday Good
OZONE
Current Good
PM2.5
Current Good
OZONE
Sunday Moderate
PM2.5
Monday Good
PM2.5
Tuesday Good
PM2.5
Wednesday Good
OZONE
Thursday Good
OZONE

Snow Depth

Station Depth Elevation
Adin Mountain 0 in 6200 ft
Burnside Lake 1 in 8139 ft
Spratt Creek 1 in 6200 ft
Leavitt Meadows 1 in 7200 ft
Forestdale Creek 0 in 8029 ft

Earthquake Activity

City Distance Mag. Time & Date
Cloverdale, California 88 miles 2.5 9:15 PM PDT
2014-09-20
Livermore, California 35 miles 2.6 3:37 AM PDT
2014-09-19
The Geysers, California 80 miles 2.5 11:29 PM PDT
2014-09-17
Minimum magnitude displayed is 2.5.

Coastal Water Temperatures

Place Temperature
No Stations Reporting

Nearby Weather Stations